sensor_id;sensor_type;location;lat;lon;timestamp;pressure;altitude;pressure_sealevel;temperature;humidity
12759;BME280;20944;47.048;15.390;2023-02-17T00:01:23;98474.72;;;2.41;95.38
12759;BME280;20944;47.048;15.390;2023-02-17T00:03:52;98451.34;;;2.35;95.11
12759;BME280;20944;47.048;15.390;2023-02-17T00:06:23;98469.88;;;2.58;94.88
12759;BME280;20944;47.048;15.390;2023-02-17T00:08:52;98435.09;;;2.43;94.56
12759;BME280;20944;47.048;15.390;2023-02-17T00:11:20;98468.06;;;2.54;95.62
12759;BME280;20944;47.048;15.390;2023-02-17T00:13:48;98423.59;;;2.26;95.43
12759;BME280;20944;47.048;15.390;2023-02-17T00:16:18;98441.84;;;2.34;95.82
12759;BME280;20944;47.048;15.390;2023-02-17T00:18:51;98468.94;;;2.56;96.34
12759;BME280;20944;47.048;15.390;2023-02-17T00:21:23;98465.44;;;2.52;95.71
12759;BME280;20944;47.048;15.390;2023-02-17T00:23:52;98486.91;;;2.48;95.86
12759;BME280;20944;47.048;15.390;2023-02-17T00:26:21;98462.75;;;2.46;96.21
12759;BME280;20944;47.048;15.390;2023-02-17T00:28:49;98470.53;;;2.48;96.11
12759;BME280;20944;47.048;15.390;2023-02-17T00:31:19;98469.72;;;2.50;96.67
12759;BME280;20944;47.048;15.390;2023-02-17T00:33:53;98467.88;;;2.44;96.74
12759;BME280;20944;47.048;15.390;2023-02-17T00:36:21;98469.72;;;2.50;96.95
12759;BME280;20944;47.048;15.390;2023-02-17T00:38:52;98041.09;;;0.14;94.80
12759;BME280;20944;47.048;15.390;2023-02-17T00:41:20;98473.44;;;2.64;93.92
12759;BME280;20944;47.048;15.390;2023-02-17T00:43:49;98438.19;;;2.23;94.95
12759;BME280;20944;47.048;15.390;2023-02-17T00:46:17;98484.13;;;2.37;95.96
12759;BME280;20944;47.048;15.390;2023-02-17T00:48:46;98489.69;;;2.12;96.63
12759;BME280;20944;47.048;15.390;2023-02-17T00:51:17;98478.06;;;2.35;96.40
12759;BME280;20944;47.048;15.390;2023-02-17T00:53:46;98486.91;;;2.48;96.16
12759;BME280;20944;47.048;15.390;2023-02-17T00:56:14;98483.72;;;2.61;96.15
12759;BME280;20944;47.048;15.390;2023-02-17T00:58:42;98479.38;;;2.59;95.81
12759;BME280;20944;47.048;15.390;2023-02-17T01:01:11;98476.69;;;2.54;95.65
12759;BME280;20944;47.048;15.390;2023-02-17T01:03:40;98477.25;;;2.38;96.98
12759;BME280;20944;47.048;15.390;2023-02-17T01:06:15;98462.59;;;2.38;97.20
12759;BME280;20944;47.048;15.390;2023-02-17T01:08:47;98461.78;;;2.41;97.82
12759;BME280;20944;47.048;15.390;2023-02-17T01:11:19;98337.44;;;1.77;96.56
12759;BME280;20944;47.048;15.390;2023-02-17T01:13:48;98468.81;;;2.48;97.03
12759;BME280;20944;47.048;15.390;2023-02-17T01:16:18;98464.53;;;2.50;97.36
12759;BME280;20944;47.048;15.390;2023-02-17T01:18:47;98462.91;;;2.55;97.04
12759;BME280;20944;47.048;15.390;2023-02-17T01:21:17;98457.59;;;2.48;96.88
12759;BME280;20944;47.048;15.390;2023-02-17T01:23:47;98462.75;;;2.46;97.32
12759;BME280;20944;47.048;15.390;2023-02-17T01:26:17;98438.31;;;2.30;97.47
12759;BME280;20944;47.048;15.390;2023-02-17T01:28:45;98465.41;;;2.51;97.55
12759;BME280;20944;47.048;15.390;2023-02-17T01:31:14;98460.28;;;2.52;97.02
12759;BME280;20944;47.048;15.390;2023-02-17T01:33:42;98454.25;;;2.53;97.30
12759;BME280;20944;47.048;15.390;2023-02-17T01:36:12;98423.00;;;2.39;97.81
12759;BME280;20944;47.048;15.390;2023-02-17T01:38:41;98452.63;;;2.58;96.87
12759;BME280;20944;47.048;15.390;2023-02-17T01:41:12;98450.81;;;2.53;97.32
12759;BME280;20944;47.048;15.390;2023-02-17T01:43:41;98453.41;;;2.54;97.65
12759;BME280;20944;47.048;15.390;2023-02-17T01:46:09;98451.75;;;2.58;97.87
12759;BME280;20944;47.048;15.390;2023-02-17T01:48:40;98452.56;;;2.57;97.60
12759;BME280;20944;47.048;15.390;2023-02-17T01:51:15;98450.00;;;2.57;97.93
12759;BME280;20944;47.048;15.390;2023-02-17T01:53:49;98449.16;;;2.58;97.93
12759;BME280;20944;47.048;15.390;2023-02-17T01:56:21;98445.56;;;2.50;98.35
12759;BME280;20944;47.048;15.390;2023-02-17T01:58:53;98435.34;;;2.57;97.98
12759;BME280;20944;47.048;15.390;2023-02-17T02:01:23;98378.84;;;2.29;98.10
12759;BME280;20944;47.048;15.390;2023-02-17T02:03:52;98433.09;;;2.77;96.89
12759;BME280;20944;47.048;15.390;2023-02-17T02:06:22;98425.28;;;2.76;96.59
12759;BME280;20944;47.048;15.390;2023-02-17T02:08:55;98428.50;;;2.59;97.11
12759;BME280;20944;47.048;15.390;2023-02-17T02:11:27;98428.38;;;2.52;98.60
12759;BME280;20944;47.048;15.390;2023-02-17T02:13:56;98421.31;;;2.44;99.18
12759;BME280;20944;47.048;15.390;2023-02-17T02:16:30;98428.44;;;2.56;99.06
12759;BME280;20944;47.048;15.390;2023-02-17T02:19:15;98423.34;;;2.61;98.52
12759;BME280;20944;47.048;15.390;2023-02-17T02:22:08;98408.44;;;2.46;98.65
12759;BME280;20944;47.048;15.390;2023-02-17T02:24:55;98359.91;;;2.31;97.60
12759;BME280;20944;47.048;15.390;2023-02-17T02:27:45;98415.84;;;2.78;97.32
12759;BME280;20944;47.048;15.390;2023-02-17T02:33:13;98410.38;;;2.59;97.63
12759;BME280;20944;47.048;15.390;2023-02-17T02:35:49;98405.13;;;2.55;98.96
12759;BME280;20944;47.048;15.390;2023-02-17T02:38:24;98402.56;;;2.56;98.28
12759;BME280;20944;47.048;15.390;2023-02-17T02:41:00;98374.72;;;2.40;98.76
12759;BME280;20944;47.048;15.390;2023-02-17T02:43:30;98405.16;;;2.56;99.00
12759;BME280;20944;47.048;15.390;2023-02-17T02:45:59;98403.69;;;2.70;98.65
12759;BME280;20944;47.048;15.390;2023-02-17T02:48:29;98411.28;;;2.61;98.52
12759;BME280;20944;47.048;15.390;2023-02-17T02:51:08;98375.50;;;2.36;98.50
12759;BME280;20944;47.048;15.390;2023-02-17T02:54:02;98416.50;;;2.64;99.16
12759;BME280;20944;47.048;15.390;2023-02-17T02:56:42;98410.50;;;2.65;98.74
12759;BME280;20944;47.048;15.390;2023-02-17T02:59:23;98416.38;;;2.57;98.72
12759;BME280;20944;47.048;15.390;2023-02-17T03:01:59;98375.47;;;2.33;99.57
12759;BME280;20944;47.048;15.390;2023-02-17T03:04:33;98418.03;;;2.53;99.80
12759;BME280;20944;47.048;15.390;2023-02-17T03:07:07;98419.81;;;2.57;99.86
12759;BME280;20944;47.048;15.390;2023-02-17T03:09:36;98409.47;;;2.57;99.85
12759;BME280;20944;47.048;15.390;2023-02-17T03:12:05;98407.72;;;2.56;99.79
12759;BME280;20944;47.048;15.390;2023-02-17T03:14:35;98386.84;;;2.44;99.98
12759;BME280;20944;47.048;15.390;2023-02-17T03:17:05;98403.41;;;2.55;100.00
12759;BME280;20944;47.048;15.390;2023-02-17T03:19:34;98401.81;;;2.63;99.80
12759;BME280;20944;47.048;15.390;2023-02-17T03:22:07;98373.25;;;2.56;98.98
12759;BME280;20944;47.048;15.390;2023-02-17T03:24:36;98401.88;;;2.68;99.10
12759;BME280;20944;47.048;15.390;2023-02-17T03:27:05;98375.13;;;2.64;97.54
12759;BME280;20944;47.048;15.390;2023-02-17T03:29:33;98402.75;;;2.68;98.03
12759;BME280;20944;47.048;15.390;2023-02-17T03:32:01;98403.41;;;2.54;99.02
12759;BME280;20944;47.048;15.390;2023-02-17T03:34:30;98406.84;;;2.54;99.97
12759;BME280;20944;47.048;15.390;2023-02-17T03:36:59;98381.66;;;2.44;99.62
12759;BME280;20944;47.048;15.390;2023-02-17T03:39:27;98409.34;;;2.48;99.91
12759;BME280;20944;47.048;15.390;2023-02-17T03:41:57;98417.00;;;2.43;100.00
12759;BME280;20944;47.048;15.390;2023-02-17T03:44:25;98413.44;;;2.35;100.00
12759;BME280;20944;47.048;15.390;2023-02-17T03:46:53;98417.75;;;2.38;100.00
12759;BME280;20944;47.048;15.390;2023-02-17T03:49:21;98415.25;;;2.41;100.00
12759;BME280;20944;47.048;15.390;2023-02-17T03:51:49;98419.59;;;2.45;100.00
12759;BME280;20944;47.048;15.390;2023-02-17T03:54:19;98317.97;;;1.96;100.00
12759;BME280;20944;47.048;15.390;2023-02-17T03:56:47;98367.63;;;2.28;100.00
12759;BME280;20944;47.048;15.390;2023-02-17T03:59:15;98412.03;;;2.54;100.00
12759;BME280;20944;47.048;15.390;2023-02-17T04:01:44;98236.31;;;1.56;100.00
12759;BME280;20944;47.048;15.390;2023-02-17T04:04:12;98391.16;;;2.45;100.00
12759;BME280;20944;47.048;15.390;2023-02-17T04:06:40;98402.78;;;2.70;99.68
12759;BME280;20944;47.048;15.390;2023-02-17T04:09:09;98307.88;;;2.10;99.79
12759;BME280;20944;47.048;15.390;2023-02-17T04:11:39;98401.88;;;2.66;99.44
12759;BME280;20944;47.048;15.390;2023-02-17T04:14:07;98412.31;;;2.73;99.96
12759;BME280;20944;47.048;15.390;2023-02-17T04:16:35;98405.41;;;2.72;99.37
12759;BME280;20944;47.048;15.390;2023-02-17T04:19:05;98408.81;;;2.69;99.60
12759;BME280;20944;47.048;15.390;2023-02-17T04:21:33;98353.84;;;2.28;100.00
12759;BME280;20944;47.048;15.390;2023-02-17T04:24:02;98348.69;;;2.29;99.86
12759;BME280;20944;47.048;15.390;2023-02-17T04:26:31;98393.16;;;2.60;99.87
12759;BME280;20944;47.048;15.390;2023-02-17T04:29:02;98411.38;;;2.69;100.00
12759;BME280;20944;47.048;15.390;2023-02-17T04:31:31;98412.41;;;2.79;99.21
12759;BME280;20944;47.048;15.390;2023-02-17T04:33:59;98406.25;;;2.70;99.42
12759;BME280;20944;47.048;15.390;2023-02-17T04:36:27;98404.38;;;2.60;99.81
12759;BME280;20944;47.048;15.390;2023-02-17T04:38:56;98382.63;;;2.51;100.00
12759;BME280;20944;47.048;15.390;2023-02-17T04:41:24;98400.84;;;2.57;100.00
12759;BME280;20944;47.048;15.390;2023-02-17T04:43:54;98398.25;;;2.55;100.00
12759;BME280;20944;47.048;15.390;2023-02-17T04:46:24;98395.72;;;2.60;100.00
12759;BME280;20944;47.048;15.390;2023-02-17T04:48:53;98401.84;;;2.65;100.00
12759;BME280;20944;47.048;15.390;2023-02-17T04:51:21;98403.56;;;2.64;100.00
12759;BME280;20944;47.048;15.390;2023-02-17T04:53:50;98406.19;;;2.66;100.00
12759;BME280;20944;47.048;15.390;2023-02-17T04:56:18;98399.19;;;2.60;100.00
12759;BME280;20944;47.048;15.390;2023-02-17T04:58:47;98400.09;;;2.64;100.00
12759;BME280;20944;47.048;15.390;2023-02-17T05:01:15;98400.94;;;2.63;100.00
12759;BME280;20944;47.048;15.390;2023-02-17T05:03:44;98396.63;;;2.63;100.00
12759;BME280;20944;47.048;15.390;2023-02-17T05:06:13;98397.50;;;2.64;100.00
12759;BME280;20944;47.048;15.390;2023-02-17T05:08:41;98396.84;;;2.76;100.00
12759;BME280;20944;47.048;15.390;2023-02-17T05:11:09;98391.44;;;2.62;100.00
12759;BME280;20944;47.048;15.390;2023-02-17T05:13:37;98387.00;;;2.53;100.00
12759;BME280;20944;47.048;15.390;2023-02-17T05:16:05;98369.28;;;2.25;100.00
12759;BME280;20944;47.048;15.390;2023-02-17T05:18:34;98390.34;;;2.46;100.00
12759;BME280;20944;47.048;15.390;2023-02-17T05:21:04;98383.38;;;2.42;100.00
12759;BME280;20944;47.048;15.390;2023-02-17T05:23:33;98385.81;;;2.33;100.00
12759;BME280;20944;47.048;15.390;2023-02-17T05:26:07;98384.97;;;2.35;100.00
12759;BME280;20944;47.048;15.390;2023-02-17T05:28:35;98391.88;;;2.36;100.00
12759;BME280;20944;47.048;15.390;2023-02-17T05:31:04;98391.69;;;2.26;100.00
12759;BME280;20944;47.048;15.390;2023-02-17T05:33:32;98365.69;;;2.15;100.00
12759;BME280;20944;47.048;15.390;2023-02-17T05:36:02;98395.09;;;2.22;100.00
12759;BME280;20944;47.048;15.390;2023-02-17T05:38:33;98383.81;;;2.18;100.00
12759;BME280;20944;47.048;15.390;2023-02-17T05:41:01;98343.06;;;2.03;100.00
12759;BME280;20944;47.048;15.390;2023-02-17T05:43:29;98389.19;;;2.30;100.00
12759;BME280;20944;47.048;15.390;2023-02-17T05:46:01;98393.41;;;2.24;100.00
12759;BME280;20944;47.048;15.390;2023-02-17T05:48:29;98395.75;;;2.11;100.00
12759;BME280;20944;47.048;15.390;2023-02-17T05:50:58;98389.69;;;2.08;100.00
12759;BME280;20944;47.048;15.390;2023-02-17T05:53:26;98390.50;;;2.07;100.00
12759;BME280;20944;47.048;15.390;2023-02-17T05:55:56;98364.47;;;1.96;100.00
12759;BME280;20944;47.048;15.390;2023-02-17T05:58:24;98372.56;;;2.14;100.00
12759;BME280;20944;47.048;15.390;2023-02-17T06:00:53;98391.31;;;2.03;100.00
12759;BME280;20944;47.048;15.390;2023-02-17T06:03:21;98354.81;;;1.86;100.00
12759;BME280;20944;47.048;15.390;2023-02-17T06:05:49;98386.41;;;2.18;100.00
12759;BME280;20944;47.048;15.390;2023-02-17T06:08:17;98386.06;;;1.98;100.00
12759;BME280;20944;47.048;15.390;2023-02-17T06:10:45;98307.34;;;1.32;100.00
12759;BME280;20944;47.048;15.390;2023-02-17T06:13:15;98395.16;;;1.79;100.00
12759;BME280;20944;47.048;15.390;2023-02-17T06:15:43;98379.41;;;1.66;100.00
12759;BME280;20944;47.048;15.390;2023-02-17T06:18:12;98401.94;;;1.73;100.00
12759;BME280;20944;47.048;15.390;2023-02-17T06:20:42;98396.75;;;1.73;100.00
12759;BME280;20944;47.048;15.390;2023-02-17T06:23:10;98381.19;;;1.70;100.00
12759;BME280;20944;47.048;15.390;2023-02-17T06:25:38;98400.34;;;1.81;100.00
12759;BME280;20944;47.048;15.390;2023-02-17T06:28:06;98381.13;;;1.65;100.00
12759;BME280;20944;47.048;15.390;2023-02-17T06:30:36;98411.63;;;1.83;100.00
12759;BME280;20944;47.048;15.390;2023-02-17T06:33:04;98366.50;;;1.67;100.00
12759;BME280;20944;47.048;15.390;2023-02-17T06:35:32;98398.75;;;1.86;100.00
12759;BME280;20944;47.048;15.390;2023-02-17T06:38:00;98398.09;;;1.96;100.00
12759;BME280;20944;47.048;15.390;2023-02-17T06:40:29;98346.81;;;1.72;100.00
12759;BME280;20944;47.048;15.390;2023-02-17T06:42:57;98402.78;;;2.19;100.00
12759;BME280;20944;47.048;15.390;2023-02-17T06:45:25;98348.13;;;1.97;100.00
12759;BME280;20944;47.048;15.390;2023-02-17T06:47:54;98397.13;;;2.39;100.00
12759;BME280;20944;47.048;15.390;2023-02-17T06:50:23;98400.72;;;2.49;100.00
12759;BME280;20944;47.048;15.390;2023-02-17T06:52:51;98400.06;;;2.62;100.00
12759;BME280;20944;47.048;15.390;2023-02-17T06:55:19;98398.34;;;2.61;100.00
12759;BME280;20944;47.048;15.390;2023-02-17T06:57:47;98406.25;;;2.70;100.00
12759;BME280;20944;47.048;15.390;2023-02-17T07:00:16;98406.41;;;2.81;100.00
12759;BME280;20944;47.048;15.390;2023-02-17T07:02:44;98315.28;;;2.43;99.92
12759;BME280;20944;47.048;15.390;2023-02-17T07:05:14;98398.97;;;3.03;98.69
12759;BME280;20944;47.048;15.390;2023-02-17T07:07:42;98363.44;;;2.91;97.97
12759;BME280;20944;47.048;15.390;2023-02-17T07:10:10;98403.38;;;3.08;98.28
12759;BME280;20944;47.048;15.390;2023-02-17T07:12:39;98399.94;;;3.09;98.40
12759;BME280;20944;47.048;15.390;2023-02-17T07:15:08;98403.56;;;3.22;97.97
12759;BME280;20944;47.048;15.390;2023-02-17T07:17:38;98403.78;;;3.39;97.84
12759;BME280;20944;47.048;15.390;2023-02-17T07:20:07;98405.72;;;3.55;96.59
12759;BME280;20944;47.048;15.390;2023-02-17T07:22:37;98363.34;;;3.51;95.99
12759;BME280;20944;47.048;15.390;2023-02-17T07:25:06;98394.13;;;4.00;94.36
12759;BME280;20944;47.048;15.390;2023-02-17T07:27:34;98407.25;;;4.14;93.72
12759;BME280;20944;47.048;15.390;2023-02-17T07:30:04;98269.19;;;3.46;91.95
12759;BME280;20944;47.048;15.390;2023-02-17T07:32:32;98391.97;;;4.43;91.27
12759;BME280;20944;47.048;15.390;2023-02-17T07:35:01;98392.97;;;4.58;90.45
12759;BME280;20944;47.048;15.390;2023-02-17T07:37:29;98402.59;;;4.72;90.44
12759;BME280;20944;47.048;15.390;2023-02-17T07:39:58;98379.25;;;4.76;89.07
12759;BME280;20944;47.048;15.390;2023-02-17T07:42:27;98397.56;;;4.96;88.76
12759;BME280;20944;47.048;15.390;2023-02-17T07:44:55;98401.06;;;5.01;87.70
12759;BME280;20944;47.048;15.390;2023-02-17T07:47:23;98406.31;;;5.03;88.27
12759;BME280;20944;47.048;15.390;2023-02-17T07:49:52;98379.47;;;5.05;87.13
12759;BME280;20944;47.048;15.390;2023-02-17T07:52:20;98395.16;;;5.25;85.63
12759;BME280;20944;47.048;15.390;2023-02-17T07:54:48;98389.16;;;5.35;85.86
12759;BME280;20944;47.048;15.390;2023-02-17T07:57:18;98390.94;;;5.44;86.25
12759;BME280;20944;47.048;15.390;2023-02-17T07:59:46;98389.22;;;5.52;86.04
12759;BME280;20944;47.048;15.390;2023-02-17T08:02:14;98387.56;;;5.68;85.25
12759;BME280;20944;47.048;15.390;2023-02-17T08:04:42;98384.19;;;5.87;83.70
12759;BME280;20944;47.048;15.390;2023-02-17T08:07:10;98378.19;;;6.04;82.68
12759;BME280;20944;47.048;15.390;2023-02-17T08:09:38;98374.72;;;6.15;81.82
12759;BME280;20944;47.048;15.390;2023-02-17T08:12:25;98382.56;;;6.32;80.22
12759;BME280;20944;47.048;15.390;2023-02-17T08:15:11;98296.63;;;5.89;79.20
12759;BME280;20944;47.048;15.390;2023-02-17T08:17:40;98309.69;;;6.12;77.95
12759;BME280;20944;47.048;15.390;2023-02-17T08:20:09;98381.75;;;6.61;76.64
12759;BME280;20944;47.048;15.390;2023-02-17T08:22:39;98381.72;;;6.64;77.34
12759;BME280;20944;47.048;15.390;2023-02-17T08:25:07;98392.13;;;6.78;76.22
12759;BME280;20944;47.048;15.390;2023-02-17T08:27:37;98362.59;;;6.83;75.36
12759;BME280;20944;47.048;15.390;2023-02-17T08:30:06;98383.44;;;7.06;74.88
12759;BME280;20944;47.048;15.390;2023-02-17T08:32:34;98379.03;;;7.22;73.76
12759;BME280;20944;47.048;15.390;2023-02-17T08:35:03;98346.91;;;7.20;72.04
12759;BME280;20944;47.048;15.390;2023-02-17T08:37:32;98368.56;;;7.45;71.53
12759;BME280;20944;47.048;15.390;2023-02-17T08:40:00;98368.53;;;7.51;71.52
12759;BME280;20944;47.048;15.390;2023-02-17T08:42:30;98371.97;;;7.59;71.28
12759;BME280;20944;47.048;15.390;2023-02-17T08:45:00;98361.47;;;7.76;70.43
12759;BME280;20944;47.048;15.390;2023-02-17T08:47:28;98348.41;;;7.80;70.59
12759;BME280;20944;47.048;15.390;2023-02-17T08:49:56;98340.53;;;7.93;69.43
12759;BME280;20944;47.048;15.390;2023-02-17T08:52:25;98351.66;;;8.19;69.67
12759;BME280;20944;47.048;15.390;2023-02-17T08:54:53;98358.50;;;8.42;67.86
12759;BME280;20944;47.048;15.390;2023-02-17T08:57:21;98363.63;;;8.55;66.12
12759;BME280;20944;47.048;15.390;2023-02-17T08:59:50;98362.63;;;8.67;65.53
12759;BME280;20944;47.048;15.390;2023-02-17T09:02:19;98364.34;;;8.74;65.13
12759;BME280;20944;47.048;15.390;2023-02-17T09:04:47;98366.78;;;8.94;64.67
12759;BME280;20944;47.048;15.390;2023-02-17T09:07:16;98350.84;;;9.17;64.47
12759;BME280;20944;47.048;15.390;2023-02-17T09:09:44;98350.56;;;9.41;63.83
12759;BME280;20944;47.048;15.390;2023-02-17T09:12:12;98350.22;;;9.70;62.56
12759;BME280;20944;47.048;15.390;2023-02-17T09:14:40;98350.13;;;9.78;61.65
12759;BME280;20944;47.048;15.390;2023-02-17T09:17:09;98250.41;;;9.35;60.32
12759;BME280;20944;47.048;15.390;2023-02-17T09:19:39;98313.69;;;9.61;59.58
12759;BME280;20944;47.048;15.390;2023-02-17T09:22:07;98342.44;;;9.66;60.73
12759;BME280;20944;47.048;15.390;2023-02-17T09:24:43;98329.53;;;9.52;61.04
12759;BME280;20944;47.048;15.390;2023-02-17T09:27:11;98334.75;;;9.52;61.04
12759;BME280;20944;47.048;15.390;2023-02-17T09:29:40;98339.03;;;9.59;59.90
12759;BME280;20944;47.048;15.390;2023-02-17T09:32:08;98335.47;;;9.65;60.30
12759;BME280;20944;47.048;15.390;2023-02-17T09:34:39;98330.78;;;9.90;59.42
12759;BME280;20944;47.048;15.390;2023-02-17T09:37:09;98330.56;;;10.07;58.97
12759;BME280;20944;47.048;15.390;2023-02-17T09:39:38;98297.38;;;10.07;59.06
12759;BME280;20944;47.048;15.390;2023-02-17T09:42:10;98329.25;;;10.38;57.50
12759;BME280;20944;47.048;15.390;2023-02-17T09:44:45;98326.38;;;10.52;57.28
12759;BME280;20944;47.048;15.390;2023-02-17T09:47:17;98305.97;;;10.71;56.61
12759;BME280;20944;47.048;15.390;2023-02-17T09:49:51;98322.03;;;11.02;56.35
12759;BME280;20944;47.048;15.390;2023-02-17T09:52:26;98268.88;;;10.94;57.09
12759;BME280;20944;47.048;15.390;2023-02-17T09:55:02;98268.75;;;10.98;56.12
12759;BME280;20944;47.048;15.390;2023-02-17T09:57:34;98301.38;;;11.31;56.25
12759;BME280;20944;47.048;15.390;2023-02-17T10:00:08;98310.59;;;11.51;56.57
12759;BME280;20944;47.048;15.390;2023-02-17T10:02:41;98306.72;;;11.67;55.24
12759;BME280;20944;47.048;15.390;2023-02-17T10:05:18;98282.47;;;11.56;55.47
12759;BME280;20944;47.048;15.390;2023-02-17T10:07:50;98298.44;;;11.87;54.50
12759;BME280;20944;47.048;15.390;2023-02-17T10:10:24;98299.72;;;12.09;54.64
12759;BME280;20944;47.048;15.390;2023-02-17T10:12:55;98307.31;;;12.22;53.47
12759;BME280;20944;47.048;15.390;2023-02-17T10:15:27;98301.97;;;12.26;53.78
12759;BME280;20944;47.048;15.390;2023-02-17T10:18:01;98299.19;;;12.31;52.59
12759;BME280;20944;47.048;15.390;2023-02-17T10:20:35;98300.78;;;12.38;52.88
12759;BME280;20944;47.048;15.390;2023-02-17T10:23:16;98301.28;;;12.54;52.51
12759;BME280;20944;47.048;15.390;2023-02-17T10:26:01;98223.13;;;12.26;52.19
12759;BME280;20944;47.048;15.390;2023-02-17T10:28:43;98295.16;;;12.87;51.22
12759;BME280;20944;47.048;15.390;2023-02-17T10:31:22;98282.38;;;13.06;50.75
12759;BME280;20944;47.048;15.390;2023-02-17T10:34:00;98288.84;;;13.27;49.45
12759;BME280;20944;47.048;15.390;2023-02-17T10:36:39;98276.34;;;13.35;48.84
12759;BME280;20944;47.048;15.390;2023-02-17T10:39:13;98273.78;;;13.32;49.06
12759;BME280;20944;47.048;15.390;2023-02-17T10:41:44;98268.78;;;13.23;48.02
12759;BME280;20944;47.048;15.390;2023-02-17T10:44:18;98245.56;;;13.05;48.70
12759;BME280;20944;47.048;15.390;2023-02-17T10:46:48;98259.38;;;13.13;49.54
12759;BME280;20944;47.048;15.390;2023-02-17T10:49:21;98255.81;;;13.15;47.30
12759;BME280;20944;47.048;15.390;2023-02-17T10:51:55;98251.22;;;12.91;47.53
12759;BME280;20944;47.048;15.390;2023-02-17T10:54:33;98206.78;;;12.80;47.61
12759;BME280;20944;47.048;15.390;2023-02-17T10:57:06;98249.69;;;13.15;46.59
12759;BME280;20944;47.048;15.390;2023-02-17T10:59:39;98253.22;;;13.14;46.29
12759;BME280;20944;47.048;15.390;2023-02-17T11:02:17;98224.31;;;13.12;46.34
12759;BME280;20944;47.048;15.390;2023-02-17T11:04:48;98237.66;;;13.37;47.72
12759;BME280;20944;47.048;15.390;2023-02-17T11:07:22;98230.44;;;13.44;47.05
12759;BME280;20944;47.048;15.390;2023-02-17T11:09:59;98212.00;;;13.45;46.34
12759;BME280;20944;47.048;15.390;2023-02-17T11:12:33;98223.09;;;13.55;45.19
12759;BME280;20944;47.048;15.390;2023-02-17T11:15:15;98224.06;;;13.53;44.98
12759;BME280;20944;47.048;15.390;2023-02-17T11:17:44;98221.25;;;13.57;44.56
12759;BME280;20944;47.048;15.390;2023-02-17T11:20:31;98223.41;;;13.74;44.82
12759;BME280;20944;47.048;15.390;2023-02-17T11:23:22;98223.75;;;13.91;44.46
12759;BME280;20944;47.048;15.390;2023-02-17T11:25:56;98209.31;;;14.03;43.24
12759;BME280;20944;47.048;15.390;2023-02-17T11:28:26;98207.41;;;14.07;43.31
12759;BME280;20944;47.048;15.390;2023-02-17T11:30:56;98203.88;;;14.08;42.36
12759;BME280;20944;47.048;15.390;2023-02-17T11:33:30;98205.56;;;14.10;43.63
12759;BME280;20944;47.048;15.390;2023-02-17T11:35:59;98175.91;;;14.03;43.34
12759;BME280;20944;47.048;15.390;2023-02-17T11:38:33;98195.06;;;14.35;42.95
12759;BME280;20944;47.048;15.390;2023-02-17T11:41:08;98194.84;;;14.41;42.17
12759;BME280;20944;47.048;15.390;2023-02-17T11:43:37;98189.19;;;14.53;42.54
12759;BME280;20944;47.048;15.390;2023-02-17T11:46:13;98185.31;;;14.64;41.96
12759;BME280;20944;47.048;15.390;2023-02-17T11:52:14;98182.31;;;14.74;42.48
12759;BME280;20944;47.048;15.390;2023-02-17T11:55:00;98149.22;;;14.66;42.09
12759;BME280;20944;47.048;15.390;2023-02-17T11:57:38;98150.69;;;14.73;41.50
12759;BME280;20944;47.048;15.390;2023-02-17T12:00:14;98173.44;;;15.00;41.81
12759;BME280;20944;47.048;15.390;2023-02-17T12:03:19;98146.47;;;14.92;41.74
12759;BME280;20944;47.048;15.390;2023-02-17T12:06:00;98152.25;;;15.02;40.81
12759;BME280;20944;47.048;15.390;2023-02-17T12:08:42;98157.72;;;14.97;41.08
12759;BME280;20944;47.048;15.390;2023-02-17T12:11:21;98136.06;;;14.88;40.57
12759;BME280;20944;47.048;15.390;2023-02-17T12:14:01;98154.16;;;14.98;39.84
12759;BME280;20944;47.048;15.390;2023-02-17T12:16:41;98150.91;;;14.92;40.38
12759;BME280;20944;47.048;15.390;2023-02-17T12:19:26;98054.47;;;14.35;40.74
12759;BME280;20944;47.048;15.390;2023-02-17T12:22:07;98154.09;;;15.00;40.79
12759;BME280;20944;47.048;15.390;2023-02-17T12:27:42;98119.00;;;14.98;40.81
12759;BME280;20944;47.048;15.390;2023-02-17T12:30:25;98133.78;;;15.02;40.21
12759;BME280;20944;47.048;15.390;2023-02-17T12:33:14;98130.25;;;15.03;40.87
12759;BME280;20944;47.048;15.390;2023-02-17T12:35:49;98127.66;;;15.01;41.39
12759;BME280;20944;47.048;15.390;2023-02-17T12:38:24;98129.44;;;15.01;41.25
12759;BME280;20944;47.048;15.390;2023-02-17T12:40:56;98122.34;;;15.03;41.31
12759;BME280;20944;47.048;15.390;2023-02-17T12:43:31;98083.25;;;14.89;41.37
12759;BME280;20944;47.048;15.390;2023-02-17T12:46:05;98106.75;;;15.19;40.54
12759;BME280;20944;47.048;15.390;2023-02-17T12:48:38;98103.72;;;15.29;39.95
12759;BME280;20944;47.048;15.390;2023-02-17T12:51:09;98104.09;;;15.42;39.91
12759;BME280;20944;47.048;15.390;2023-02-17T12:53:44;98098.06;;;15.60;40.74
12759;BME280;20944;47.048;15.390;2023-02-17T12:59:14;98101.47;;;16.06;40.49
12759;BME280;20944;47.048;15.390;2023-02-17T13:01:50;98092.94;;;16.20;39.51
12759;BME280;20944;47.048;15.390;2023-02-17T13:04:22;98096.25;;;16.25;38.47
12759;BME280;20944;47.048;15.390;2023-02-17T13:06:57;98089.38;;;16.21;38.34
12759;BME280;20944;47.048;15.390;2023-02-17T13:09:31;98082.25;;;16.23;38.57
12759;BME280;20944;47.048;15.390;2023-02-17T13:12:30;98093.69;;;16.24;38.16
12759;BME280;20944;47.048;15.390;2023-02-17T13:15:02;98082.50;;;16.37;38.05
12759;BME280;20944;47.048;15.390;2023-02-17T13:17:33;98075.56;;;16.55;37.85
12759;BME280;20944;47.048;15.390;2023-02-17T13:22:49;98076.66;;;16.70;37.14
12759;BME280;20944;47.048;15.390;2023-02-17T13:25:30;98080.22;;;16.69;37.00
12759;BME280;20944;47.048;15.390;2023-02-17T13:28:01;98048.91;;;16.39;37.11
12759;BME280;20944;47.048;15.390;2023-02-17T13:30:38;98041.59;;;16.26;36.20
12759;BME280;20944;47.048;15.390;2023-02-17T13:33:25;98081.06;;;16.30;36.05